Time;durP1;ratioP1;P1;durP2;ratioP2;P2;SDS_P1;SDS_P2;PMS_P1;PMS_P2;Temp;Humidity;BMP_temperature;BMP_pressure;BME280_temperature;BME280_humidity;BME280_pressure;Samples;Min_cycle;Max_cycle;Signal;HPM_P1;HPM_P2
2021/07/13 00:00:29;;;;;;;2.64;1.83;;;;;;;21.36;70.96;99754.88;;;;-51
2021/07/13 00:03:29;;;;;;;2.13;1.68;;;;;;;21.36;70.89;99753.91;;;;-52
2021/07/13 00:06:29;;;;;;;1.96;1.77;;;;;;;21.36;70.99;99752.78;;;;-52
2021/07/13 00:09:29;;;;;;;1.69;1.59;;;;;;;21.35;70.94;99743.02;;;;-51
2021/07/13 00:12:29;;;;;;;2.24;1.75;;;;;;;21.35;70.88;99733.14;;;;-51
2021/07/13 00:15:29;;;;;;;2.57;1.76;;;;;;;21.35;70.91;99729.23;;;;-57
2021/07/13 00:18:29;;;;;;;2.15;1.78;;;;;;;21.35;70.94;99728.91;;;;-57
2021/07/13 00:21:29;;;;;;;2.23;1.67;;;;;;;21.34;70.90;99728.77;;;;-57
2021/07/13 00:24:29;;;;;;;2.64;1.71;;;;;;;21.34;70.92;99730.70;;;;-58
2021/07/13 00:27:29;;;;;;;2.87;1.73;;;;;;;21.33;70.93;99726.73;;;;-57
2021/07/13 00:30:29;;;;;;;1.98;1.80;;;;;;;21.33;70.90;99723.15;;;;-57
2021/07/13 00:33:29;;;;;;;2.86;1.80;;;;;;;21.33;70.88;99720.38;;;;-51
2021/07/13 00:36:29;;;;;;;2.70;1.70;;;;;;;21.33;70.96;99716.38;;;;-51
2021/07/13 00:39:29;;;;;;;1.99;1.77;;;;;;;21.33;70.97;99711.89;;;;-51
2021/07/13 00:42:29;;;;;;;2.73;1.70;;;;;;;21.32;70.94;99698.86;;;;-51
2021/07/13 00:45:29;;;;;;;2.09;1.69;;;;;;;21.32;70.96;99694.08;;;;-52
2021/07/13 00:48:29;;;;;;;1.98;1.61;;;;;;;21.32;70.94;99693.75;;;;-51
2021/07/13 00:51:29;;;;;;;1.91;1.69;;;;;;;21.32;70.92;99695.45;;;;-51
2021/07/13 00:54:29;;;;;;;2.11;1.72;;;;;;;21.31;71.04;99698.06;;;;-51
2021/07/13 00:57:29;;;;;;;2.15;1.71;;;;;;;21.31;70.91;99697.64;;;;-52
2021/07/13 01:00:29;;;;;;;2.27;1.67;;;;;;;21.31;70.93;99695.61;;;;-52
2021/07/13 01:03:29;;;;;;;1.85;1.62;;;;;;;21.31;70.88;99703.02;;;;-51
2021/07/13 01:06:29;;;;;;;2.89;1.71;;;;;;;21.31;70.99;99703.02;;;;-53
2021/07/13 01:09:29;;;;;;;1.65;1.55;;;;;;;21.30;70.88;99697.34;;;;-51
2021/07/13 01:12:29;;;;;;;2.35;1.79;;;;;;;21.30;70.96;99695.30;;;;-51
2021/07/13 01:15:28;;;;;;;2.33;1.78;;;;;;;21.29;70.96;99695.08;;;;-51
2021/07/13 01:18:29;;;;;;;1.93;1.70;;;;;;;21.30;70.92;99685.52;;;;-51
2021/07/13 01:21:29;;;;;;;1.67;1.57;;;;;;;21.29;70.95;99685.30;;;;-52
2021/07/13 01:24:29;;;;;;;2.69;1.68;;;;;;;21.29;70.86;99684.00;;;;-52
2021/07/13 01:27:29;;;;;;;1.71;1.61;;;;;;;21.29;70.91;99684.81;;;;-51
2021/07/13 01:30:28;;;;;;;1.60;1.50;;;;;;;21.29;70.94;99679.25;;;;-52
2021/07/13 01:33:29;;;;;;;1.99;1.75;;;;;;;21.29;70.98;99680.34;;;;-51
2021/07/13 01:36:29;;;;;;;1.82;1.70;;;;;;;21.29;70.93;99683.18;;;;-51
2021/07/13 01:39:28;;;;;;;2.50;1.69;;;;;;;21.29;70.93;99686.28;;;;-51
2021/07/13 01:42:29;;;;;;;2.82;1.70;;;;;;;21.29;70.96;99687.67;;;;-51
2021/07/13 01:45:29;;;;;;;1.97;1.71;;;;;;;21.29;70.93;99682.11;;;;-52
2021/07/13 01:48:30;;;;;;;1.98;1.60;;;;;;;21.28;70.92;99677.89;;;;-52
2021/07/13 01:51:29;;;;;;;2.04;1.70;;;;;;;21.28;70.95;99680.91;;;;-53
2021/07/13 01:54:29;;;;;;;1.78;1.60;;;;;;;21.28;70.94;99688.34;;;;-53
2021/07/13 01:57:29;;;;;;;1.57;1.47;;;;;;;21.27;70.96;99696.07;;;;-51
2021/07/13 02:00:28;;;;;;;3.96;1.75;;;;;;;21.27;70.88;99692.81;;;;-51
2021/07/13 02:03:29;;;;;;;2.47;1.51;;;;;;;21.27;71.02;99686.78;;;;-58
2021/07/13 02:06:29;;;;;;;2.05;1.70;;;;;;;21.27;70.95;99684.75;;;;-52
2021/07/13 02:09:29;;;;;;;2.23;1.55;;;;;;;21.27;70.95;99685.08;;;;-53
2021/07/13 02:12:29;;;;;;;2.22;1.70;;;;;;;21.27;70.97;99689.64;;;;-57
2021/07/13 02:15:28;;;;;;;2.21;1.77;;;;;;;21.26;70.97;99692.27;;;;-58
2021/07/13 02:18:29;;;;;;;1.73;1.60;;;;;;;21.26;70.93;99696.83;;;;-57
2021/07/13 02:21:29;;;;;;;1.71;1.61;;;;;;;21.26;70.96;99696.90;;;;-58
2021/07/13 02:24:28;;;;;;;2.69;1.69;;;;;;;21.26;70.94;99698.55;;;;-57
2021/07/13 02:27:31;;;;;;;2.25;1.60;;;;;;;21.26;70.94;99704.17;;;;-58
2021/07/13 02:30:28;;;;;;;1.97;1.66;;;;;;;21.26;71.00;99713.69;;;;-51
2021/07/13 02:33:29;;;;;;;1.87;1.59;;;;;;;21.26;70.97;99718.92;;;;-53
2021/07/13 02:36:29;;;;;;;1.83;1.70;;;;;;;21.26;71.00;99720.88;;;;-52
2021/07/13 02:39:29;;;;;;;2.08;1.75;;;;;;;21.25;70.89;99719.75;;;;-51
2021/07/13 02:42:29;;;;;;;1.87;1.64;;;;;;;21.25;70.96;99717.39;;;;-61
2021/07/13 02:45:28;;;;;;;1.88;1.74;;;;;;;21.25;70.91;99724.07;;;;-51
2021/07/13 02:48:29;;;;;;;2.65;1.79;;;;;;;21.25;70.93;99721.47;;;;-57
2021/07/13 02:51:29;;;;;;;1.83;1.61;;;;;;;21.25;71.01;99715.17;;;;-57
2021/07/13 02:54:29;;;;;;;1.70;1.60;;;;;;;21.24;70.94;99702.14;;;;-53
2021/07/13 02:57:29;;;;;;;1.84;1.61;;;;;;;21.24;70.85;99689.94;;;;-52
2021/07/13 03:00:28;;;;;;;1.70;1.57;;;;;;;21.24;71.00;99686.26;;;;-53
2021/07/13 03:03:29;;;;;;;1.89;1.66;;;;;;;21.24;70.84;99680.80;;;;-52
2021/07/13 03:06:28;;;;;;;1.65;1.55;;;;;;;21.24;70.91;99669.65;;;;-57
2021/07/13 03:09:29;;;;;;;1.89;1.68;;;;;;;21.23;70.93;99666.31;;;;-57
2021/07/13 03:12:29;;;;;;;1.75;1.65;;;;;;;21.23;70.87;99661.58;;;;-53
2021/07/13 03:15:29;;;;;;;1.95;1.74;;;;;;;21.23;70.97;99656.69;;;;-61
2021/07/13 03:18:29;;;;;;;1.71;1.61;;;;;;;21.23;70.97;99650.42;;;;-61
2021/07/13 03:21:29;;;;;;;1.78;1.60;;;;;;;21.22;70.94;99643.66;;;;-60
2021/07/13 03:24:29;;;;;;;1.75;1.62;;;;;;;21.22;70.93;99639.75;;;;-60
2021/07/13 03:27:29;;;;;;;1.69;1.59;;;;;;;21.22;71.01;99632.83;;;;-51
2021/07/13 03:30:28;;;;;;;1.75;1.61;;;;;;;21.22;70.90;99629.50;;;;-57
2021/07/13 03:33:29;;;;;;;1.79;1.60;;;;;;;21.21;71.02;99616.80;;;;-61
2021/07/13 03:36:29;;;;;;;2.74;1.54;;;;;;;21.22;71.01;99615.73;;;;-60
2021/07/13 03:39:29;;;;;;;2.69;1.69;;;;;;;21.22;70.99;99617.04;;;;-58
2021/07/13 03:42:29;;;;;;;2.40;1.63;;;;;;;21.21;70.93;99608.33;;;;-58
2021/07/13 03:45:30;;;;;;;1.90;1.71;;;;;;;21.22;70.91;99599.67;;;;-52
2021/07/13 03:48:29;;;;;;;2.71;1.65;;;;;;;21.21;70.98;99594.00;;;;-52
2021/07/13 03:51:28;;;;;;;1.71;1.61;;;;;;;21.20;70.91;99584.53;;;;-57
2021/07/13 03:54:29;;;;;;;1.71;1.59;;;;;;;21.20;70.94;99577.11;;;;-61
2021/07/13 03:57:29;;;;;;;2.15;1.79;;;;;;;21.21;70.94;99566.05;;;;-52
2021/07/13 04:00:28;;;;;;;1.87;1.63;;;;;;;21.21;71.00;99557.17;;;;-51
2021/07/13 04:03:29;;;;;;;1.73;1.60;;;;;;;21.20;70.90;99543.14;;;;-51
2021/07/13 04:06:29;;;;;;;2.01;1.79;;;;;;;21.20;70.95;99537.37;;;;-51
2021/07/13 04:09:29;;;;;;;2.05;1.62;;;;;;;21.20;70.99;99532.73;;;;-52
2021/07/13 04:12:29;;;;;;;1.82;1.72;;;;;;;21.20;70.95;99530.69;;;;-51
2021/07/13 04:15:29;;;;;;;1.70;1.60;;;;;;;21.20;71.02;99529.47;;;;-51
2021/07/13 04:18:29;;;;;;;2.27;1.67;;;;;;;21.20;70.96;99529.95;;;;-53
2021/07/13 04:21:29;;;;;;;2.00;1.61;;;;;;;21.20;71.00;99519.77;;;;-51
2021/07/13 04:24:29;;;;;;;1.55;1.45;;;;;;;21.19;71.03;99512.70;;;;-52
2021/07/13 04:27:30;;;;;;;2.27;1.61;;;;;;;21.19;71.07;99510.66;;;;-52
2021/07/13 04:30:28;;;;;;;1.82;1.69;;;;;;;21.19;71.07;99504.41;;;;-53
2021/07/13 04:33:29;;;;;;;1.56;1.46;;;;;;;21.19;71.04;99505.22;;;;-51
2021/07/13 04:36:29;;;;;;;1.79;1.61;;;;;;;21.19;71.03;99502.45;;;;-52
2021/07/13 04:39:28;;;;;;;1.97;1.64;;;;;;;21.19;70.92;99504.41;;;;-52
2021/07/13 04:42:29;;;;;;;1.84;1.53;;;;;;;21.18;71.00;99498.36;;;;-51
2021/07/13 04:45:28;;;;;;;1.70;1.60;;;;;;;21.19;70.99;99495.92;;;;-52
2021/07/13 04:48:28;;;;;;;1.81;1.71;;;;;;;21.19;70.96;99498.70;;;;-51
2021/07/13 04:51:29;;;;;;;3.15;1.71;;;;;;;21.18;70.98;99501.71;;;;-51
2021/07/13 04:54:31;;;;;;;1.68;1.58;;;;;;;21.18;71.00;99509.94;;;;-51
2021/07/13 04:57:29;;;;;;;1.74;1.57;;;;;;;21.18;70.97;99510.49;;;;-51
2021/07/13 05:00:28;;;;;;;1.87;1.68;;;;;;;21.18;70.96;99508.23;;;;-51
2021/07/13 05:03:28;;;;;;;1.68;1.58;;;;;;;21.18;70.97;99520.13;;;;-51
2021/07/13 05:06:29;;;;;;;1.63;1.53;;;;;;;21.18;70.96;99527.05;;;;-51
2021/07/13 05:09:28;;;;;;;2.09;1.70;;;;;;;21.18;71.00;99527.55;;;;-51
2021/07/13 05:12:29;;;;;;;1.79;1.69;;;;;;;21.17;70.99;99522.52;;;;-51
2021/07/13 05:15:28;;;;;;;1.62;1.52;;;;;;;21.17;71.00;99525.77;;;;-51
2021/07/13 05:18:29;;;;;;;1.77;1.66;;;;;;;21.17;70.93;99523.56;;;;-52
2021/07/13 05:21:29;;;;;;;1.60;1.50;;;;;;;21.17;71.03;99534.64;;;;-51
2021/07/13 05:24:28;;;;;;;1.56;1.46;;;;;;;21.17;70.97;99534.91;;;;-51
2021/07/13 05:27:29;;;;;;;1.53;1.39;;;;;;;21.17;70.97;99522.92;;;;-52
2021/07/13 05:30:28;;;;;;;1.62;1.52;;;;;;;21.17;70.98;99520.81;;;;-53
2021/07/13 05:33:28;;;;;;;1.49;1.37;;;;;;;21.17;70.88;99523.83;;;;-51
2021/07/13 05:36:29;;;;;;;1.60;1.50;;;;;;;21.16;70.89;99524.88;;;;-51
2021/07/13 05:39:29;;;;;;;1.60;1.50;;;;;;;21.16;70.96;99522.52;;;;-52
2021/07/13 05:42:29;;;;;;;1.72;1.58;;;;;;;21.16;70.93;99521.30;;;;-51
2021/07/13 05:45:28;;;;;;;1.61;1.51;;;;;;;21.16;70.97;99524.70;;;;-51
2021/07/13 05:48:28;;;;;;;1.71;1.60;;;;;;;21.16;70.83;99532.85;;;;-51
2021/07/13 05:51:29;;;;;;;1.46;1.36;;;;;;;21.16;70.95;99536.03;;;;-51
2021/07/13 05:54:29;;;;;;;1.68;1.58;;;;;;;21.16;71.00;99541.66;;;;-51
2021/07/13 05:57:29;;;;;;;1.69;1.59;;;;;;;21.16;70.97;99541.42;;;;-51
2021/07/13 06:00:28;;;;;;;1.73;1.60;;;;;;;21.16;70.93;99541.75;;;;-57
2021/07/13 06:03:28;;;;;;;1.65;1.55;;;;;;;21.15;70.92;99543.89;;;;-58
2021/07/13 06:06:29;;;;;;;1.60;1.50;;;;;;;21.15;70.92;99549.10;;;;-58
2021/07/13 06:09:28;;;;;;;1.60;1.50;;;;;;;21.15;70.89;99551.95;;;;-57
2021/07/13 06:12:29;;;;;;;1.51;1.41;;;;;;;21.15;70.97;99547.64;;;;-57
2021/07/13 06:15:28;;;;;;;1.56;1.46;;;;;;;21.15;70.93;99551.55;;;;-57
2021/07/13 06:18:28;;;;;;;1.75;1.65;;;;;;;21.14;70.90;99546.25;;;;-58
2021/07/13 06:21:29;;;;;;;1.69;1.59;;;;;;;21.15;70.98;99546.67;;;;-58
2021/07/13 06:24:28;;;;;;;4.59;1.85;;;;;;;21.15;71.58;99544.39;;;;-56
2021/07/13 06:27:29;;;;;;;5.34;2.47;;;;;;;21.15;73.73;99545.59;;;;-64
2021/07/13 06:30:28;;;;;;;3.60;2.63;;;;;;;21.16;73.39;99547.61;;;;-66
2021/07/13 06:33:28;;;;;;;4.72;2.68;;;;;;;21.17;73.79;99556.66;;;;-64
2021/07/13 06:36:29;;;;;;;3.67;2.43;;;;;;;21.17;73.55;99557.08;;;;-64
2021/07/13 06:39:28;;;;;;;6.07;2.34;;;;;;;21.17;73.16;99563.27;;;;-59
2021/07/13 06:42:29;;;;;;;5.83;2.71;;;;;;;21.20;73.26;99560.11;;;;-53
2021/07/13 06:45:28;;;;;;;4.75;2.42;;;;;;;21.20;72.99;99560.81;;;;-62
2021/07/13 06:48:28;;;;;;;4.00;2.40;;;;;;;21.21;72.94;99558.80;;;;-62
2021/07/13 06:51:29;;;;;;;7.56;2.89;;;;;;;21.22;73.01;99562.28;;;;-62
2021/07/13 06:54:29;;;;;;;4.94;2.36;;;;;;;21.22;73.33;99563.75;;;;-52
2021/07/13 06:57:29;;;;;;;4.65;2.46;;;;;;;21.22;73.17;99564.48;;;;-52
2021/07/13 07:00:28;;;;;;;8.45;2.51;;;;;;;21.23;73.01;99566.08;;;;-53
2021/07/13 07:03:29;;;;;;;4.35;2.44;;;;;;;21.23;73.00;99568.94;;;;-62
2021/07/13 07:06:29;;;;;;;5.82;2.59;;;;;;;21.23;72.84;99571.95;;;;-62
2021/07/13 07:09:28;;;;;;;4.97;2.40;;;;;;;21.24;72.75;99582.46;;;;-61
2021/07/13 07:12:29;;;;;;;5.33;2.67;;;;;;;21.23;72.67;99587.20;;;;-61
2021/07/13 07:15:29;;;;;;;4.03;2.51;;;;;;;21.24;72.68;99586.70;;;;-62
2021/07/13 07:18:28;;;;;;;6.01;2.74;;;;;;;21.24;72.56;99582.05;;;;-62
2021/07/13 07:21:28;;;;;;;6.95;2.55;;;;;;;21.24;72.56;99580.41;;;;-62
2021/07/13 07:24:28;;;;;;;4.66;2.43;;;;;;;21.24;72.51;99580.56;;;;-64
2021/07/13 07:27:29;;;;;;;4.19;2.43;;;;;;;21.24;72.37;99575.85;;;;-63
2021/07/13 07:30:29;;;;;;;5.72;2.45;;;;;;;21.24;72.26;99577.72;;;;-63
2021/07/13 07:33:29;;;;;;;6.29;2.46;;;;;;;21.25;72.30;99581.85;;;;-52
2021/07/13 07:36:28;;;;;;;4.13;2.29;;;;;;;21.24;72.23;99588.96;;;;-53
2021/07/13 07:39:28;;;;;;;3.90;2.40;;;;;;;21.24;72.18;99591.32;;;;-52
2021/07/13 07:42:29;;;;;;;4.24;2.49;;;;;;;21.24;72.23;99587.75;;;;-53
2021/07/13 07:45:29;;;;;;;5.03;2.34;;;;;;;21.25;72.33;99586.58;;;;-51
2021/07/13 07:48:29;;;;;;;6.19;2.53;;;;;;;21.28;72.44;99579.70;;;;-50
2021/07/13 07:51:28;;;;;;;6.73;2.59;;;;;;;21.29;75.09;99575.77;;;;-54
2021/07/13 07:54:28;;;;;;;5.22;3.26;;;;;;;21.31;74.24;99575.73;;;;-52
2021/07/13 07:57:29;;;;;;;5.23;3.38;;;;;;;21.33;74.38;99579.95;;;;-64
2021/07/13 08:00:28;;;;;;;3.47;3.01;;;;;;;21.34;73.83;99583.76;;;;-55
2021/07/13 08:03:29;;;;;;;5.53;3.03;;;;;;;21.36;73.61;99584.72;;;;-55
2021/07/13 08:06:28;;;;;;;3.58;3.10;;;;;;;21.37;73.69;99584.45;;;;-54
2021/07/13 08:09:28;;;;;;;5.62;2.89;;;;;;;21.38;73.52;99579.71;;;;-55
2021/07/13 08:12:29;;;;;;;4.36;2.86;;;;;;;21.39;73.40;99572.99;;;;-56
2021/07/13 08:15:28;;;;;;;5.83;2.80;;;;;;;21.40;73.48;99566.96;;;;-53
2021/07/13 08:18:28;;;;;;;5.20;2.84;;;;;;;21.42;73.53;99568.50;;;;-59
2021/07/13 08:21:28;;;;;;;4.63;2.99;;;;;;;21.43;73.28;99579.34;;;;-51
2021/07/13 08:24:29;;;;;;;7.97;2.99;;;;;;;21.44;73.17;99578.50;;;;-51
2021/07/13 08:27:29;;;;;;;4.21;2.81;;;;;;;21.46;73.31;99585.33;;;;-55
2021/07/13 08:30:31;;;;;;;4.00;2.71;;;;;;;21.47;73.16;99586.61;;;;-60
2021/07/13 08:33:28;;;;;;;4.73;2.77;;;;;;;21.47;73.18;99578.20;;;;-60
2021/07/13 08:36:28;;;;;;;3.86;2.67;;;;;;;21.48;72.97;99580.25;;;;-59
2021/07/13 08:39:28;;;;;;;4.65;2.59;;;;;;;21.48;72.87;99582.44;;;;-51
2021/07/13 08:42:28;;;;;;;4.75;2.69;;;;;;;21.49;72.96;99594.33;;;;-51
2021/07/13 08:45:28;;;;;;;3.54;2.76;;;;;;;21.50;72.95;99599.52;;;;-53
2021/07/13 08:48:28;;;;;;;3.75;2.51;;;;;;;21.50;72.81;99593.64;;;;-52
2021/07/13 08:51:28;;;;;;;4.90;2.57;;;;;;;21.50;72.39;99593.82;;;;-55
2021/07/13 08:54:28;;;;;;;3.98;2.54;;;;;;;21.49;72.64;99591.05;;;;-58
2021/07/13 08:57:28;;;;;;;3.31;2.41;;;;;;;21.49;72.79;99590.89;;;;-58
2021/07/13 09:00:28;;;;;;;4.24;2.58;;;;;;;21.49;72.51;99581.45;;;;-58
2021/07/13 09:03:32;;;;;;;5.37;2.58;;;;;;;21.48;72.60;99582.53;;;;-61
2021/07/13 09:06:28;;;;;;;4.86;2.73;;;;;;;21.48;72.32;99581.39;;;;-57
2021/07/13 09:09:29;;;;;;;5.79;2.53;;;;;;;21.47;72.47;99580.72;;;;-62
2021/07/13 09:12:29;;;;;;;3.80;2.35;;;;;;;21.49;72.51;99587.31;;;;-66
2021/07/13 09:15:28;;;;;;;3.47;2.60;;;;;;;21.49;72.56;99586.66;;;;-66
2021/07/13 09:18:28;;;;;;;5.29;2.61;;;;;;;21.50;72.53;99595.77;;;;-55
2021/07/13 09:21:32;;;;;;;5.57;2.37;;;;;;;21.52;72.70;99597.28;;;;-52
2021/07/13 09:24:28;;;;;;;7.07;2.45;;;;;;;21.53;72.87;99602.66;;;;-55
2021/07/13 09:27:29;;;;;;;5.41;2.35;;;;;;;21.54;72.91;99606.07;;;;-60
2021/07/13 09:30:28;;;;;;;4.88;2.37;;;;;;;21.56;73.05;99614.83;;;;-63
2021/07/13 09:33:29;;;;;;;3.39;2.38;;;;;;;21.57;72.78;99624.45;;;;-52
2021/07/13 09:36:28;;;;;;;4.45;2.63;;;;;;;21.58;72.99;99639.82;;;;-51
2021/07/13 09:39:28;;;;;;;4.63;2.65;;;;;;;21.58;73.01;99646.69;;;;-46
2021/07/13 09:42:28;;;;;;;8.69;2.85;;;;;;;21.60;72.80;99654.30;;;;-62
2021/07/13 09:45:31;;;;;;;7.85;2.53;;;;;;;21.61;72.91;99656.44;;;;-61
2021/07/13 09:48:28;;;;;;;4.28;2.52;;;;;;;21.61;72.75;99663.51;;;;-58
2021/07/13 09:51:28;;;;;;;3.61;2.43;;;;;;;21.61;72.47;99664.42;;;;-62
2021/07/13 09:54:29;;;;;;;6.47;2.69;;;;;;;21.60;72.61;99668.48;;;;-63
2021/07/13 09:57:29;;;;;;;4.01;2.41;;;;;;;21.58;72.92;99673.35;;;;-52
2021/07/13 10:00:28;;;;;;;5.99;2.80;;;;;;;21.59;72.90;99676.77;;;;-61
2021/07/13 10:03:29;;;;;;;5.94;2.49;;;;;;;21.59;72.82;99684.09;;;;-58
2021/07/13 10:06:28;;;;;;;3.96;2.71;;;;;;;21.61;72.81;99692.15;;;;-58
2021/07/13 10:09:29;;;;;;;5.70;2.35;;;;;;;21.61;72.52;99688.47;;;;-51
2021/07/13 10:12:28;;;;;;;4.96;2.31;;;;;;;21.60;72.78;99690.34;;;;-52
2021/07/13 10:15:28;;;;;;;5.66;2.59;;;;;;;21.59;72.71;99702.52;;;;-51
2021/07/13 10:18:28;;;;;;;6.35;2.55;;;;;;;21.59;72.70;99704.14;;;;-53
2021/07/13 10:21:29;;;;;;;4.77;2.30;;;;;;;21.59;72.64;99697.05;;;;-64
2021/07/13 10:24:28;;;;;;;5.06;2.27;;;;;;;21.60;72.66;99705.11;;;;-61
2021/07/13 10:27:28;;;;;;;3.90;2.30;;;;;;;21.61;72.60;99697.77;;;;-65
2021/07/13 10:30:28;;;;;;;3.59;2.40;;;;;;;21.60;72.68;99697.44;;;;-65
2021/07/13 10:33:29;;;;;;;2.72;2.27;;;;;;;21.61;72.50;99710.97;;;;-62
2021/07/13 10:36:29;;;;;;;4.03;2.26;;;;;;;21.61;72.37;99719.05;;;;-58
2021/07/13 10:39:29;;;;;;;6.82;2.34;;;;;;;21.61;72.53;99719.22;;;;-59
2021/07/13 10:42:28;;;;;;;2.65;2.17;;;;;;;21.60;72.54;99728.01;;;;-63
2021/07/13 10:45:29;;;;;;;3.36;2.35;;;;;;;21.58;72.52;99736.95;;;;-65
2021/07/13 10:48:28;;;;;;;3.73;2.42;;;;;;;21.58;72.48;99725.70;;;;-64
2021/07/13 10:51:28;;;;;;;4.55;2.35;;;;;;;21.59;72.46;99739.44;;;;-59
2021/07/13 10:54:28;;;;;;;2.69;2.02;;;;;;;21.60;72.44;99736.59;;;;-51
2021/07/13 10:57:29;;;;;;;3.13;2.08;;;;;;;21.62;72.45;99728.57;;;;-52
2021/07/13 11:00:28;;;;;;;3.00;2.20;;;;;;;21.62;72.41;99721.45;;;;-61
2021/07/13 11:04:29;;;;;;;3.73;2.13;;;;;;;21.62;72.44;99706.78;;;;-61
2021/07/13 11:07:28;;;;;;;2.38;2.10;;;;;;;21.63;72.46;99714.13;;;;-57
2021/07/13 11:10:28;;;;;;;2.87;2.21;;;;;;;21.64;72.52;99726.01;;;;-55
2021/07/13 11:13:28;;;;;;;3.66;2.05;;;;;;;21.64;72.23;99737.58;;;;-52
2021/07/13 11:16:28;;;;;;;4.16;2.39;;;;;;;21.64;72.36;99747.95;;;;-52
2021/07/13 11:19:28;;;;;;;2.69;2.04;;;;;;;21.63;72.31;99751.21;;;;-52
2021/07/13 11:22:29;;;;;;;3.39;2.21;;;;;;;21.63;72.31;99742.42;;;;-52
2021/07/13 11:25:34;;;;;;;2.99;2.01;;;;;;;21.62;72.21;99749.18;;;;-52
2021/07/13 11:28:28;;;;;;;2.83;2.03;;;;;;;21.60;72.10;99750.67;;;;-52
2021/07/13 11:31:28;;;;;;;2.40;1.90;;;;;;;21.60;72.17;99750.59;;;;-52
2021/07/13 11:34:28;;;;;;;3.81;2.10;;;;;;;21.59;72.17;99760.47;;;;-52
2021/07/13 11:37:29;;;;;;;5.11;2.15;;;;;;;21.59;72.01;99756.41;;;;-52
2021/07/13 11:40:29;;;;;;;2.51;2.11;;;;;;;21.59;72.01;99744.59;;;;-53
2021/07/13 11:43:28;;;;;;;2.51;2.02;;;;;;;21.57;71.99;99738.65;;;;-52
2021/07/13 11:46:29;;;;;;;2.93;1.98;;;;;;;21.57;71.89;99743.70;;;;-52
2021/07/13 11:49:28;;;;;;;4.23;2.01;;;;;;;21.57;71.95;99758.07;;;;-53
2021/07/13 11:52:29;;;;;;;2.48;2.06;;;;;;;21.55;71.85;99755.31;;;;-52
2021/07/13 11:55:28;;;;;;;2.80;2.00;;;;;;;21.56;71.85;99768.02;;;;-50
2021/07/13 11:58:28;;;;;;;2.65;1.97;;;;;;;21.55;71.74;99768.28;;;;-50
2021/07/13 12:01:29;;;;;;;2.79;1.97;;;;;;;21.55;71.87;99773.02;;;;-50
2021/07/13 12:04:28;;;;;;;2.76;1.97;;;;;;;21.55;71.82;99785.08;;;;-60
2021/07/13 12:07:28;;;;;;;4.59;2.03;;;;;;;21.55;71.85;99797.72;;;;-62
2021/07/13 12:10:28;;;;;;;3.51;1.87;;;;;;;21.55;71.86;99804.80;;;;-64
2021/07/13 12:13:28;;;;;;;3.49;2.31;;;;;;;21.54;71.85;99799.04;;;;-63
2021/07/13 12:16:29;;;;;;;2.49;1.89;;;;;;;21.54;71.96;99808.26;;;;-63
2021/07/13 12:19:28;;;;;;;4.33;1.95;;;;;;;21.54;71.85;99817.23;;;;-63
2021/07/13 12:22:28;;;;;;;3.27;2.00;;;;;;;21.53;71.80;99826.76;;;;-63
2021/07/13 12:25:28;;;;;;;3.14;1.88;;;;;;;21.54;71.78;99831.14;;;;-63
2021/07/13 12:28:28;;;;;;;2.39;1.99;;;;;;;21.53;71.77;99833.53;;;;-63
2021/07/13 12:31:28;;;;;;;2.51;1.99;;;;;;;21.53;71.80;99842.91;;;;-63
2021/07/13 12:34:29;;;;;;;4.81;2.07;;;;;;;21.52;71.74;99843.65;;;;-63
2021/07/13 12:37:29;;;;;;;4.12;2.11;;;;;;;21.53;71.68;99849.03;;;;-60
2021/07/13 12:40:28;;;;;;;3.03;1.91;;;;;;;21.52;71.85;99842.11;;;;-60
2021/07/13 12:43:28;;;;;;;3.91;2.01;;;;;;;21.53;71.93;99840.72;;;;-62
2021/07/13 12:46:28;;;;;;;3.67;2.11;;;;;;;21.53;72.00;99844.88;;;;-62
2021/07/13 12:49:28;;;;;;;2.68;1.96;;;;;;;21.52;71.88;99848.47;;;;-53
2021/07/13 12:52:28;;;;;;;3.48;2.05;;;;;;;21.52;71.99;99842.44;;;;-53
2021/07/13 12:55:28;;;;;;;2.75;2.01;;;;;;;21.53;71.79;99836.16;;;;-53
2021/07/13 12:58:28;;;;;;;3.99;1.98;;;;;;;21.51;71.76;99829.72;;;;-53
2021/07/13 13:01:28;;;;;;;2.73;2.06;;;;;;;21.52;71.81;99826.04;;;;-54
2021/07/13 13:04:28;;;;;;;2.35;1.91;;;;;;;21.52;71.82;99829.14;;;;-53
2021/07/13 13:07:29;;;;;;;2.26;1.89;;;;;;;21.51;71.79;99828.58;;;;-53
2021/07/13 13:10:28;;;;;;;4.15;1.97;;;;;;;21.50;71.69;99832.03;;;;-53
2021/07/13 13:13:28;;;;;;;2.48;1.86;;;;;;;21.50;71.72;99840.59;;;;-53
2021/07/13 13:16:31;;;;;;;3.29;1.99;;;;;;;21.51;71.78;99854.34;;;;-54
2021/07/13 13:19:29;;;;;;;3.37;1.94;;;;;;;21.52;71.71;99855.73;;;;-51
2021/07/13 13:22:28;;;;;;;3.65;2.00;;;;;;;21.53;71.86;99861.33;;;;-54
2021/07/13 13:25:28;;;;;;;2.77;1.99;;;;;;;21.54;71.95;99869.95;;;;-55
2021/07/13 13:28:28;;;;;;;5.15;2.15;;;;;;;21.54;72.01;99868.17;;;;-51
2021/07/13 13:31:28;;;;;;;5.73;2.33;;;;;;;21.55;71.97;99862.78;;;;-51
2021/07/13 13:34:29;;;;;;;2.82;2.08;;;;;;;21.55;72.11;99865.39;;;;-53
2021/07/13 13:37:35;;;;;;;2.44;1.86;;;;;;;21.54;72.04;99870.87;;;;-51
2021/07/13 13:40:28;;;;;;;3.41;2.13;;;;;;;21.54;72.08;99885.22;;;;-52
2021/07/13 13:43:29;;;;;;;3.98;2.02;;;;;;;21.54;72.21;99884.73;;;;-51
2021/07/13 13:46:28;;;;;;;3.35;2.10;;;;;;;21.53;72.09;99869.31;;;;-51
2021/07/13 13:49:28;;;;;;;4.57;2.28;;;;;;;21.53;72.09;99865.89;;;;-52
2021/07/13 13:52:29;;;;;;;3.35;2.03;;;;;;;21.52;72.01;99863.96;;;;-52
2021/07/13 13:55:29;;;;;;;3.15;2.00;;;;;;;21.53;72.00;99869.58;;;;-51
2021/07/13 13:58:28;;;;;;;4.34;1.95;;;;;;;21.51;72.08;99866.00;;;;-53
2021/07/13 14:01:28;;;;;;;2.11;1.91;;;;;;;21.51;72.00;99866.08;;;;-62
2021/07/13 14:04:28;;;;;;;3.19;1.93;;;;;;;21.51;71.98;99861.92;;;;-63
2021/07/13 14:07:28;;;;;;;3.67;1.99;;;;;;;21.51;71.87;99857.05;;;;-62
2021/07/13 14:10:28;;;;;;;3.05;2.10;;;;;;;21.51;71.92;99847.27;;;;-63
2021/07/13 14:13:28;;;;;;;3.55;1.93;;;;;;;21.49;71.87;99827.20;;;;-62
2021/07/13 14:16:28;;;;;;;2.60;2.01;;;;;;;21.50;71.79;99814.56;;;;-63
2021/07/13 14:19:28;;;;;;;2.40;1.90;;;;;;;21.50;71.86;99831.46;;;;-63
2021/07/13 14:22:28;;;;;;;4.76;2.17;;;;;;;21.48;71.82;99841.09;;;;-60
2021/07/13 14:25:28;;;;;;;2.65;1.81;;;;;;;21.49;71.84;99830.73;;;;-62
2021/07/13 14:28:29;;;;;;;3.28;1.99;;;;;;;21.48;71.78;99833.66;;;;-62
2021/07/13 14:31:28;;;;;;;2.48;1.90;;;;;;;21.49;71.83;99844.10;;;;-62
2021/07/13 14:34:28;;;;;;;2.32;1.67;;;;;;;21.48;71.82;99846.40;;;;-63
2021/07/13 14:37:29;;;;;;;2.73;1.89;;;;;;;21.47;71.83;99863.91;;;;-63
2021/07/13 14:40:28;;;;;;;2.89;1.91;;;;;;;21.47;71.75;99872.72;;;;-59
2021/07/13 14:43:29;;;;;;;3.05;2.11;;;;;;;21.46;71.72;99872.09;;;;-60
2021/07/13 14:46:28;;;;;;;3.43;1.92;;;;;;;21.46;71.65;99879.59;;;;-60
2021/07/13 14:49:28;;;;;;;3.03;1.90;;;;;;;21.46;71.74;99876.84;;;;-53
2021/07/13 14:52:28;;;;;;;2.07;1.75;;;;;;;21.46;71.70;99877.08;;;;-53
2021/07/13 14:55:28;;;;;;;2.98;2.00;;;;;;;21.46;71.66;99874.86;;;;-53
2021/07/13 14:58:28;;;;;;;2.00;1.80;;;;;;;21.46;71.63;99878.47;;;;-52
2021/07/13 15:01:28;;;;;;;2.07;1.78;;;;;;;21.46;71.62;99886.63;;;;-53
2021/07/13 15:04:28;;;;;;;2.27;1.86;;;;;;;21.45;71.68;99883.52;;;;-51
2021/07/13 15:07:28;;;;;;;1.99;1.81;;;;;;;21.45;71.62;99873.16;;;;-52
2021/07/13 15:10:28;;;;;;;2.61;1.89;;;;;;;21.44;71.62;99853.05;;;;-51
2021/07/13 15:13:28;;;;;;;2.47;1.99;;;;;;;21.43;71.67;99846.19;;;;-51
2021/07/13 15:16:28;;;;;;;3.78;1.89;;;;;;;21.43;71.65;99843.42;;;;-51
2021/07/13 15:19:28;;;;;;;2.57;2.03;;;;;;;21.43;71.64;99848.15;;;;-51
2021/07/13 15:22:28;;;;;;;1.92;1.70;;;;;;;21.44;71.64;99852.49;;;;-51
2021/07/13 15:25:28;;;;;;;2.31;1.87;;;;;;;21.43;71.65;99852.16;;;;-53
2021/07/13 15:28:28;;;;;;;2.27;1.78;;;;;;;21.43;71.64;99857.45;;;;-52
2021/07/13 15:31:29;;;;;;;2.01;1.80;;;;;;;21.42;71.66;99866.92;;;;-62
2021/07/13 15:34:28;;;;;;;4.93;1.90;;;;;;;21.42;71.65;99862.28;;;;-62
2021/07/13 15:37:29;;;;;;;2.65;1.86;;;;;;;21.41;71.66;99853.69;;;;-52
2021/07/13 15:40:28;;;;;;;2.10;1.84;;;;;;;21.42;71.65;99858.19;;;;-53
2021/07/13 15:43:28;;;;;;;1.89;1.68;;;;;;;21.41;71.62;99852.23;;;;-53
2021/07/13 15:46:29;;;;;;;1.88;1.69;;;;;;;21.40;71.62;99850.03;;;;-52
2021/07/13 15:49:28;;;;;;;2.18;1.80;;;;;;;21.40;71.64;99854.70;;;;-64
2021/07/13 15:52:28;;;;;;;1.93;1.70;;;;;;;21.39;71.58;99849.08;;;;-63
2021/07/13 15:55:28;;;;;;;2.39;1.86;;;;;;;21.39;71.58;99854.94;;;;-64
2021/07/13 15:58:29;;;;;;;3.39;1.65;;;;;;;21.40;71.67;99856.49;;;;-51
2021/07/13 16:01:28;;;;;;;2.35;1.70;;;;;;;21.38;71.57;99851.20;;;;-51
2021/07/13 16:04:28;;;;;;;2.20;1.61;;;;;;;21.38;71.63;99850.72;;;;-51
2021/07/13 16:07:28;;;;;;;1.98;1.78;;;;;;;21.38;71.60;99852.83;;;;-51
2021/07/13 16:10:28;;;;;;;2.07;1.69;;;;;;;21.38;71.66;99854.39;;;;-52
2021/07/13 16:13:28;;;;;;;1.93;1.70;;;;;;;21.38;71.63;99855.04;;;;-51
2021/07/13 16:16:28;;;;;;;2.87;1.81;;;;;;;21.38;71.49;99855.13;;;;-60
2021/07/13 16:19:28;;;;;;;2.17;1.67;;;;;;;21.37;71.52;99846.41;;;;-53
2021/07/13 16:22:28;;;;;;;2.27;1.73;;;;;;;21.37;71.55;99844.05;;;;-52
2021/07/13 16:25:28;;;;;;;2.07;1.70;;;;;;;21.37;71.52;99843.95;;;;-59
2021/07/13 16:28:28;;;;;;;3.00;1.77;;;;;;;21.36;71.54;99834.20;;;;-62
2021/07/13 16:31:28;;;;;;;1.92;1.69;;;;;;;21.37;71.55;99848.62;;;;-62
2021/07/13 16:34:28;;;;;;;2.23;1.79;;;;;;;21.37;71.57;99856.91;;;;-62
2021/07/13 16:37:28;;;;;;;1.98;1.71;;;;;;;21.37;71.49;99856.03;;;;-63
2021/07/13 16:40:30;;;;;;;1.98;1.67;;;;;;;21.37;71.50;99856.52;;;;-51
2021/07/13 16:43:28;;;;;;;1.65;1.55;;;;;;;21.37;71.49;99856.52;;;;-52
2021/07/13 16:46:28;;;;;;;1.70;1.56;;;;;;;21.36;71.58;99855.95;;;;-62
2021/07/13 16:49:28;;;;;;;1.71;1.60;;;;;;;21.36;71.53;99867.03;;;;-62
2021/07/13 16:52:28;;;;;;;2.23;1.83;;;;;;;21.36;71.57;99874.20;;;;-63
2021/07/13 16:55:31;;;;;;;1.93;1.73;;;;;;;21.36;71.62;99879.75;;;;-51